sensor_id;sensor_type;location;lat;lon;timestamp;P1;durP1;ratioP1;P2;durP2;ratioP2
77310;SDS011;66371;52.714;5.074;2023-07-16T00:01:17;20.33;;;7.17;;
77310;SDS011;66371;52.714;5.074;2023-07-16T00:03:43;12.27;;;5.72;;
77310;SDS011;66371;52.714;5.074;2023-07-16T00:06:08;15.25;;;5.45;;
77310;SDS011;66371;52.714;5.074;2023-07-16T00:08:34;13.70;;;6.57;;
77310;SDS011;66371;52.714;5.074;2023-07-16T00:10:59;10.30;;;5.07;;
77310;SDS011;66371;52.714;5.074;2023-07-16T00:13:24;8.77;;;5.27;;
77310;SDS011;66371;52.714;5.074;2023-07-16T00:15:50;12.65;;;6.07;;
77310;SDS011;66371;52.714;5.074;2023-07-16T00:18:15;12.25;;;6.95;;
77310;SDS011;66371;52.714;5.074;2023-07-16T00:20:40;13.50;;;8.33;;
77310;SDS011;66371;52.714;5.074;2023-07-16T00:23:06;13.75;;;7.53;;
77310;SDS011;66371;52.714;5.074;2023-07-16T00:25:31;9.40;;;5.30;;
77310;SDS011;66371;52.714;5.074;2023-07-16T00:27:57;16.57;;;6.57;;
77310;SDS011;66371;52.714;5.074;2023-07-16T00:30:22;10.18;;;6.00;;
77310;SDS011;66371;52.714;5.074;2023-07-16T00:32:48;10.20;;;5.63;;
77310;SDS011;66371;52.714;5.074;2023-07-16T00:35:13;13.00;;;5.97;;
77310;SDS011;66371;52.714;5.074;2023-07-16T00:37:39;12.77;;;6.00;;
77310;SDS011;66371;52.714;5.074;2023-07-16T00:40:04;12.55;;;5.40;;
77310;SDS011;66371;52.714;5.074;2023-07-16T00:42:30;11.40;;;5.10;;
77310;SDS011;66371;52.714;5.074;2023-07-16T00:44:56;11.32;;;5.20;;
77310;SDS011;66371;52.714;5.074;2023-07-16T00:47:21;11.63;;;4.57;;
77310;SDS011;66371;52.714;5.074;2023-07-16T00:49:47;10.77;;;5.55;;
77310;SDS011;66371;52.714;5.074;2023-07-16T00:52:14;11.95;;;4.68;;
77310;SDS011;66371;52.714;5.074;2023-07-16T00:54:43;11.65;;;5.95;;
77310;SDS011;66371;52.714;5.074;2023-07-16T00:57:08;11.20;;;5.00;;
77310;SDS011;66371;52.714;5.074;2023-07-16T00:59:34;9.35;;;4.93;;
77310;SDS011;66371;52.714;5.074;2023-07-16T01:01:59;10.90;;;5.93;;
77310;SDS011;66371;52.714;5.074;2023-07-16T01:04:24;9.88;;;5.03;;
77310;SDS011;66371;52.714;5.074;2023-07-16T01:06:51;11.52;;;5.53;;
77310;SDS011;66371;52.714;5.074;2023-07-16T01:09:20;14.00;;;6.32;;
77310;SDS011;66371;52.714;5.074;2023-07-16T01:11:46;9.40;;;4.97;;
77310;SDS011;66371;52.714;5.074;2023-07-16T01:14:13;10.23;;;4.85;;
77310;SDS011;66371;52.714;5.074;2023-07-16T01:16:42;7.82;;;4.70;;
77310;SDS011;66371;52.714;5.074;2023-07-16T01:19:07;9.15;;;5.20;;
77310;SDS011;66371;52.714;5.074;2023-07-16T01:30:21;9.48;;;5.22;;
77310;SDS011;66371;52.714;5.074;2023-07-16T01:32:47;6.78;;;3.63;;
77310;SDS011;66371;52.714;5.074;2023-07-16T01:35:13;6.75;;;4.85;;
77310;SDS011;66371;52.714;5.074;2023-07-16T01:37:40;7.38;;;4.15;;
77310;SDS011;66371;52.714;5.074;2023-07-16T01:40:07;10.13;;;4.97;;
77310;SDS011;66371;52.714;5.074;2023-07-16T01:42:34;11.45;;;5.50;;
77310;SDS011;66371;52.714;5.074;2023-07-16T01:45:00;14.65;;;6.45;;
77310;SDS011;66371;52.714;5.074;2023-07-16T01:47:31;9.27;;;6.82;;
77310;SDS011;66371;52.714;5.074;2023-07-16T01:49:57;10.30;;;5.97;;
77310;SDS011;66371;52.714;5.074;2023-07-16T01:52:23;9.77;;;6.13;;
77310;SDS011;66371;52.714;5.074;2023-07-16T01:54:48;9.18;;;5.60;;
77310;SDS011;66371;52.714;5.074;2023-07-16T01:57:13;14.80;;;6.55;;
77310;SDS011;66371;52.714;5.074;2023-07-16T01:59:39;13.80;;;8.03;;
77310;SDS011;66371;52.714;5.074;2023-07-16T02:02:04;13.00;;;6.85;;
77310;SDS011;66371;52.714;5.074;2023-07-16T02:04:31;13.10;;;7.13;;
77310;SDS011;66371;52.714;5.074;2023-07-16T02:06:56;9.73;;;6.90;;
77310;SDS011;66371;52.714;5.074;2023-07-16T02:09:23;14.80;;;8.60;;
77310;SDS011;66371;52.714;5.074;2023-07-16T02:11:48;13.23;;;6.80;;
77310;SDS011;66371;52.714;5.074;2023-07-16T02:14:14;9.73;;;5.90;;
77310;SDS011;66371;52.714;5.074;2023-07-16T02:16:41;12.35;;;6.65;;
77310;SDS011;66371;52.714;5.074;2023-07-16T02:19:07;13.30;;;6.85;;
77310;SDS011;66371;52.714;5.074;2023-07-16T02:21:33;15.35;;;8.82;;
77310;SDS011;66371;52.714;5.074;2023-07-16T02:23:58;11.77;;;6.37;;
77310;SDS011;66371;52.714;5.074;2023-07-16T02:26:24;13.65;;;6.57;;
77310;SDS011;66371;52.714;5.074;2023-07-16T02:28:49;11.35;;;6.35;;
77310;SDS011;66371;52.714;5.074;2023-07-16T02:31:14;12.33;;;6.87;;
77310;SDS011;66371;52.714;5.074;2023-07-16T02:33:41;12.40;;;6.47;;
77310;SDS011;66371;52.714;5.074;2023-07-16T02:36:06;18.40;;;8.80;;
77310;SDS011;66371;52.714;5.074;2023-07-16T02:38:32;13.18;;;7.40;;
77310;SDS011;66371;52.714;5.074;2023-07-16T02:40:57;11.73;;;7.82;;
77310;SDS011;66371;52.714;5.074;2023-07-16T02:43:22;17.00;;;7.07;;
77310;SDS011;66371;52.714;5.074;2023-07-16T02:45:48;13.75;;;7.60;;
77310;SDS011;66371;52.714;5.074;2023-07-16T02:48:13;15.88;;;6.53;;
77310;SDS011;66371;52.714;5.074;2023-07-16T02:50:39;10.85;;;7.43;;
77310;SDS011;66371;52.714;5.074;2023-07-16T02:53:05;13.05;;;7.13;;
77310;SDS011;66371;52.714;5.074;2023-07-16T02:55:32;12.55;;;7.53;;
77310;SDS011;66371;52.714;5.074;2023-07-16T02:57:59;11.45;;;7.25;;
77310;SDS011;66371;52.714;5.074;2023-07-16T03:00:29;10.23;;;7.10;;
77310;SDS011;66371;52.714;5.074;2023-07-16T03:02:55;9.23;;;6.53;;
77310;SDS011;66371;52.714;5.074;2023-07-16T03:05:20;11.48;;;6.28;;
77310;SDS011;66371;52.714;5.074;2023-07-16T03:07:45;17.52;;;8.80;;
77310;SDS011;66371;52.714;5.074;2023-07-16T03:10:11;11.00;;;6.82;;
77310;SDS011;66371;52.714;5.074;2023-07-16T03:12:36;13.00;;;8.10;;
77310;SDS011;66371;52.714;5.074;2023-07-16T03:15:01;11.52;;;6.15;;
77310;SDS011;66371;52.714;5.074;2023-07-16T03:17:27;12.02;;;6.88;;
77310;SDS011;66371;52.714;5.074;2023-07-16T03:19:52;11.43;;;6.43;;
77310;SDS011;66371;52.714;5.074;2023-07-16T03:22:18;12.50;;;6.90;;
77310;SDS011;66371;52.714;5.074;2023-07-16T03:24:43;11.57;;;7.30;;
77310;SDS011;66371;52.714;5.074;2023-07-16T03:27:08;12.20;;;6.75;;
77310;SDS011;66371;52.714;5.074;2023-07-16T03:29:34;13.10;;;7.32;;
77310;SDS011;66371;52.714;5.074;2023-07-16T03:31:59;9.15;;;5.28;;
77310;SDS011;66371;52.714;5.074;2023-07-16T03:34:25;13.40;;;7.10;;
77310;SDS011;66371;52.714;5.074;2023-07-16T03:36:50;12.00;;;6.65;;
77310;SDS011;66371;52.714;5.074;2023-07-16T03:39:17;11.05;;;6.22;;
77310;SDS011;66371;52.714;5.074;2023-07-16T03:41:42;13.77;;;6.95;;
77310;SDS011;66371;52.714;5.074;2023-07-16T03:44:08;12.50;;;6.53;;
77310;SDS011;66371;52.714;5.074;2023-07-16T03:46:33;9.87;;;6.77;;
77310;SDS011;66371;52.714;5.074;2023-07-16T03:48:59;16.27;;;7.50;;
77310;SDS011;66371;52.714;5.074;2023-07-16T03:51:24;13.50;;;8.43;;
77310;SDS011;66371;52.714;5.074;2023-07-16T03:53:49;14.32;;;9.15;;
77310;SDS011;66371;52.714;5.074;2023-07-16T03:56:15;13.32;;;8.35;;
77310;SDS011;66371;52.714;5.074;2023-07-16T03:58:40;11.60;;;6.63;;
77310;SDS011;66371;52.714;5.074;2023-07-16T04:01:05;11.63;;;6.47;;
77310;SDS011;66371;52.714;5.074;2023-07-16T04:03:31;11.55;;;7.55;;
77310;SDS011;66371;52.714;5.074;2023-07-16T04:06:03;11.63;;;7.15;;
77310;SDS011;66371;52.714;5.074;2023-07-16T04:08:29;13.07;;;7.25;;
77310;SDS011;66371;52.714;5.074;2023-07-16T04:10:54;12.82;;;7.88;;
77310;SDS011;66371;52.714;5.074;2023-07-16T04:13:21;12.23;;;7.13;;
77310;SDS011;66371;52.714;5.074;2023-07-16T04:15:47;12.93;;;7.20;;
77310;SDS011;66371;52.714;5.074;2023-07-16T04:18:12;13.43;;;7.10;;
77310;SDS011;66371;52.714;5.074;2023-07-16T04:20:37;13.43;;;7.07;;
77310;SDS011;66371;52.714;5.074;2023-07-16T04:23:04;10.63;;;6.82;;
77310;SDS011;66371;52.714;5.074;2023-07-16T04:25:29;10.53;;;6.57;;
77310;SDS011;66371;52.714;5.074;2023-07-16T04:27:55;13.50;;;7.20;;
77310;SDS011;66371;52.714;5.074;2023-07-16T04:30:21;9.55;;;6.63;;
77310;SDS011;66371;52.714;5.074;2023-07-16T04:32:46;12.15;;;8.27;;
77310;SDS011;66371;52.714;5.074;2023-07-16T04:35:12;13.53;;;6.33;;
77310;SDS011;66371;52.714;5.074;2023-07-16T04:37:37;11.43;;;6.55;;
77310;SDS011;66371;52.714;5.074;2023-07-16T04:40:03;14.57;;;7.23;;
77310;SDS011;66371;52.714;5.074;2023-07-16T04:42:29;8.65;;;6.65;;
77310;SDS011;66371;52.714;5.074;2023-07-16T04:44:54;15.30;;;8.18;;
77310;SDS011;66371;52.714;5.074;2023-07-16T04:47:20;9.70;;;5.95;;
77310;SDS011;66371;52.714;5.074;2023-07-16T04:49:45;12.23;;;6.87;;
77310;SDS011;66371;52.714;5.074;2023-07-16T04:52:10;13.63;;;7.67;;
77310;SDS011;66371;52.714;5.074;2023-07-16T04:54:37;11.85;;;6.15;;
77310;SDS011;66371;52.714;5.074;2023-07-16T04:57:03;12.88;;;7.97;;
77310;SDS011;66371;52.714;5.074;2023-07-16T04:59:30;12.07;;;6.90;;
77310;SDS011;66371;52.714;5.074;2023-07-16T05:01:56;17.13;;;7.93;;
77310;SDS011;66371;52.714;5.074;2023-07-16T05:04:21;9.03;;;6.23;;
77310;SDS011;66371;52.714;5.074;2023-07-16T05:06:46;10.38;;;6.15;;
77310;SDS011;66371;52.714;5.074;2023-07-16T05:09:12;10.20;;;5.70;;
77310;SDS011;66371;52.714;5.074;2023-07-16T05:11:38;12.45;;;6.93;;
77310;SDS011;66371;52.714;5.074;2023-07-16T05:14:04;12.63;;;5.70;;
77310;SDS011;66371;52.714;5.074;2023-07-16T05:16:29;11.63;;;7.75;;
77310;SDS011;66371;52.714;5.074;2023-07-16T05:18:54;13.33;;;6.63;;
77310;SDS011;66371;52.714;5.074;2023-07-16T05:21:21;11.35;;;8.07;;
77310;SDS011;66371;52.714;5.074;2023-07-16T05:23:46;14.40;;;6.63;;
77310;SDS011;66371;52.714;5.074;2023-07-16T05:26:11;12.15;;;7.78;;
77310;SDS011;66371;52.714;5.074;2023-07-16T05:28:38;12.25;;;6.78;;
77310;SDS011;66371;52.714;5.074;2023-07-16T05:31:03;12.73;;;7.85;;
77310;SDS011;66371;52.714;5.074;2023-07-16T05:33:29;11.20;;;5.55;;
77310;SDS011;66371;52.714;5.074;2023-07-16T05:35:54;12.98;;;7.15;;
77310;SDS011;66371;52.714;5.074;2023-07-16T05:38:20;11.18;;;7.00;;
77310;SDS011;66371;52.714;5.074;2023-07-16T05:40:45;14.27;;;6.95;;
77310;SDS011;66371;52.714;5.074;2023-07-16T05:43:11;11.60;;;8.43;;
77310;SDS011;66371;52.714;5.074;2023-07-16T05:45:36;11.90;;;6.40;;
77310;SDS011;66371;52.714;5.074;2023-07-16T05:48:02;13.68;;;8.73;;
77310;SDS011;66371;52.714;5.074;2023-07-16T05:50:28;12.93;;;7.43;;
77310;SDS011;66371;52.714;5.074;2023-07-16T05:52:54;14.30;;;8.15;;
77310;SDS011;66371;52.714;5.074;2023-07-16T05:55:19;13.35;;;7.05;;
77310;SDS011;66371;52.714;5.074;2023-07-16T05:57:45;13.50;;;7.93;;
77310;SDS011;66371;52.714;5.074;2023-07-16T06:00:10;11.82;;;5.88;;
77310;SDS011;66371;52.714;5.074;2023-07-16T06:02:36;11.70;;;6.65;;
77310;SDS011;66371;52.714;5.074;2023-07-16T06:05:01;16.40;;;7.82;;
77310;SDS011;66371;52.714;5.074;2023-07-16T06:07:27;13.75;;;7.35;;
77310;SDS011;66371;52.714;5.074;2023-07-16T06:09:52;15.32;;;6.35;;
77310;SDS011;66371;52.714;5.074;2023-07-16T06:12:18;15.77;;;8.10;;
77310;SDS011;66371;52.714;5.074;2023-07-16T06:14:45;10.70;;;6.30;;
77310;SDS011;66371;52.714;5.074;2023-07-16T06:17:10;13.05;;;7.10;;
77310;SDS011;66371;52.714;5.074;2023-07-16T06:19:36;12.35;;;6.57;;
77310;SDS011;66371;52.714;5.074;2023-07-16T06:22:01;13.00;;;7.00;;
77310;SDS011;66371;52.714;5.074;2023-07-16T06:24:26;10.98;;;6.68;;
77310;SDS011;66371;52.714;5.074;2023-07-16T06:26:52;11.32;;;5.25;;
77310;SDS011;66371;52.714;5.074;2023-07-16T06:29:17;11.60;;;5.83;;
77310;SDS011;66371;52.714;5.074;2023-07-16T06:31:43;10.45;;;6.82;;
77310;SDS011;66371;52.714;5.074;2023-07-16T06:34:09;10.45;;;6.45;;
77310;SDS011;66371;52.714;5.074;2023-07-16T06:36:34;10.48;;;7.03;;
77310;SDS011;66371;52.714;5.074;2023-07-16T06:39:00;13.40;;;6.77;;
77310;SDS011;66371;52.714;5.074;2023-07-16T06:41:25;14.40;;;7.05;;
77310;SDS011;66371;52.714;5.074;2023-07-16T06:43:51;13.25;;;6.40;;
77310;SDS011;66371;52.714;5.074;2023-07-16T06:46:16;10.30;;;6.18;;
77310;SDS011;66371;52.714;5.074;2023-07-16T06:48:42;13.20;;;6.70;;
77310;SDS011;66371;52.714;5.074;2023-07-16T06:51:07;11.20;;;7.03;;
77310;SDS011;66371;52.714;5.074;2023-07-16T06:53:32;12.20;;;6.30;;
77310;SDS011;66371;52.714;5.074;2023-07-16T06:56:00;11.65;;;7.55;;
77310;SDS011;66371;52.714;5.074;2023-07-16T06:58:32;10.83;;;6.37;;
77310;SDS011;66371;52.714;5.074;2023-07-16T07:00:58;11.02;;;8.20;;
77310;SDS011;66371;52.714;5.074;2023-07-16T07:03:23;10.98;;;7.43;;
77310;SDS011;66371;52.714;5.074;2023-07-16T07:05:49;9.70;;;6.47;;
77310;SDS011;66371;52.714;5.074;2023-07-16T07:08:15;9.97;;;7.03;;
77310;SDS011;66371;52.714;5.074;2023-07-16T07:10:41;10.05;;;6.95;;
77310;SDS011;66371;52.714;5.074;2023-07-16T07:13:06;9.57;;;8.23;;
77310;SDS011;66371;52.714;5.074;2023-07-16T07:15:31;10.60;;;7.97;;
77310;SDS011;66371;52.714;5.074;2023-07-16T07:17:57;13.38;;;7.32;;
77310;SDS011;66371;52.714;5.074;2023-07-16T07:20:22;10.65;;;6.80;;
77310;SDS011;66371;52.714;5.074;2023-07-16T07:22:47;13.40;;;7.87;;
77310;SDS011;66371;52.714;5.074;2023-07-16T07:25:13;9.63;;;6.40;;
77310;SDS011;66371;52.714;5.074;2023-07-16T07:27:39;11.63;;;7.93;;
77310;SDS011;66371;52.714;5.074;2023-07-16T07:30:05;9.63;;;6.50;;
77310;SDS011;66371;52.714;5.074;2023-07-16T07:32:31;12.93;;;6.35;;
77310;SDS011;66371;52.714;5.074;2023-07-16T07:34:56;10.07;;;6.15;;
77310;SDS011;66371;52.714;5.074;2023-07-16T07:37:21;13.05;;;7.13;;
77310;SDS011;66371;52.714;5.074;2023-07-16T07:39:51;13.52;;;6.40;;
77310;SDS011;66371;52.714;5.074;2023-07-16T07:42:17;10.02;;;7.13;;
77310;SDS011;66371;52.714;5.074;2023-07-16T07:44:42;14.70;;;6.85;;
77310;SDS011;66371;52.714;5.074;2023-07-16T07:47:08;7.73;;;4.97;;
77310;SDS011;66371;52.714;5.074;2023-07-16T07:49:35;13.45;;;7.60;;
77310;SDS011;66371;52.714;5.074;2023-07-16T07:52:00;12.43;;;6.45;;
77310;SDS011;66371;52.714;5.074;2023-07-16T07:54:25;15.33;;;6.13;;
77310;SDS011;66371;52.714;5.074;2023-07-16T07:56:51;9.85;;;5.70;;
77310;SDS011;66371;52.714;5.074;2023-07-16T07:59:17;11.18;;;4.38;;
77310;SDS011;66371;52.714;5.074;2023-07-16T08:01:43;15.23;;;5.78;;
77310;SDS011;66371;52.714;5.074;2023-07-16T08:04:08;16.38;;;7.50;;
77310;SDS011;66371;52.714;5.074;2023-07-16T08:06:33;12.10;;;6.40;;
77310;SDS011;66371;52.714;5.074;2023-07-16T08:08:59;14.68;;;7.70;;
77310;SDS011;66371;52.714;5.074;2023-07-16T08:11:24;18.90;;;6.90;;
77310;SDS011;66371;52.714;5.074;2023-07-16T08:13:49;15.35;;;6.60;;
77310;SDS011;66371;52.714;5.074;2023-07-16T08:16:15;13.50;;;7.22;;
77310;SDS011;66371;52.714;5.074;2023-07-16T08:18:40;8.80;;;6.37;;
77310;SDS011;66371;52.714;5.074;2023-07-16T08:21:06;11.95;;;5.82;;
77310;SDS011;66371;52.714;5.074;2023-07-16T08:23:31;17.17;;;6.95;;
77310;SDS011;66371;52.714;5.074;2023-07-16T08:25:57;16.77;;;6.63;;
77310;SDS011;66371;52.714;5.074;2023-07-16T08:28:22;12.68;;;5.47;;
77310;SDS011;66371;52.714;5.074;2023-07-16T08:30:48;13.38;;;6.75;;
77310;SDS011;66371;52.714;5.074;2023-07-16T08:33:14;13.43;;;5.88;;
77310;SDS011;66371;52.714;5.074;2023-07-16T08:35:40;12.13;;;6.63;;
77310;SDS011;66371;52.714;5.074;2023-07-16T08:38:06;11.77;;;6.22;;
77310;SDS011;66371;52.714;5.074;2023-07-16T08:40:34;11.45;;;6.28;;
77310;SDS011;66371;52.714;5.074;2023-07-16T08:43:01;15.05;;;8.57;;
77310;SDS011;66371;52.714;5.074;2023-07-16T08:45:28;13.40;;;6.65;;
77310;SDS011;66371;52.714;5.074;2023-07-16T08:47:55;11.57;;;6.40;;
77310;SDS011;66371;52.714;5.074;2023-07-16T08:50:21;13.82;;;7.07;;
77310;SDS011;66371;52.714;5.074;2023-07-16T08:52:47;12.75;;;6.57;;
77310;SDS011;66371;52.714;5.074;2023-07-16T08:55:13;12.73;;;5.47;;
77310;SDS011;66371;52.714;5.074;2023-07-16T08:57:39;11.90;;;7.97;;
77310;SDS011;66371;52.714;5.074;2023-07-16T09:00:05;11.43;;;5.40;;
77310;SDS011;66371;52.714;5.074;2023-07-16T09:02:32;12.63;;;6.25;;
77310;SDS011;66371;52.714;5.074;2023-07-16T09:04:57;14.98;;;5.03;;
77310;SDS011;66371;52.714;5.074;2023-07-16T09:07:24;8.27;;;4.45;;
77310;SDS011;66371;52.714;5.074;2023-07-16T09:09:56;11.75;;;4.20;;
77310;SDS011;66371;52.714;5.074;2023-07-16T09:12:25;8.45;;;3.97;;
77310;SDS011;66371;52.714;5.074;2023-07-16T09:14:51;11.50;;;5.35;;
77310;SDS011;66371;52.714;5.074;2023-07-16T09:17:23;13.05;;;6.95;;
77310;SDS011;66371;52.714;5.074;2023-07-16T09:19:52;11.18;;;5.38;;
77310;SDS011;66371;52.714;5.074;2023-07-16T09:22:18;11.13;;;4.35;;
77310;SDS011;66371;52.714;5.074;2023-07-16T09:24:45;9.18;;;5.18;;
77310;SDS011;66371;52.714;5.074;2023-07-16T09:27:11;8.43;;;5.40;;
77310;SDS011;66371;52.714;5.074;2023-07-16T09:29:37;12.27;;;5.05;;
77310;SDS011;66371;52.714;5.074;2023-07-16T09:32:03;10.40;;;5.15;;
77310;SDS011;66371;52.714;5.074;2023-07-16T09:34:30;7.22;;;5.68;;
77310;SDS011;66371;52.714;5.074;2023-07-16T09:36:56;12.05;;;4.70;;
77310;SDS011;66371;52.714;5.074;2023-07-16T09:39:22;14.30;;;5.93;;
77310;SDS011;66371;52.714;5.074;2023-07-16T09:41:49;10.70;;;4.97;;
77310;SDS011;66371;52.714;5.074;2023-07-16T09:44:15;8.10;;;4.93;;
77310;SDS011;66371;52.714;5.074;2023-07-16T09:46:42;14.23;;;5.70;;
77310;SDS011;66371;52.714;5.074;2023-07-16T09:49:07;11.98;;;5.57;;
77310;SDS011;66371;52.714;5.074;2023-07-16T09:51:35;8.98;;;4.35;;
77310;SDS011;66371;52.714;5.074;2023-07-16T09:54:01;14.75;;;4.55;;
77310;SDS011;66371;52.714;5.074;2023-07-16T09:56:28;11.98;;;6.15;;
77310;SDS011;66371;52.714;5.074;2023-07-16T09:59:00;11.40;;;5.80;;
77310;SDS011;66371;52.714;5.074;2023-07-16T10:01:26;9.45;;;4.95;;
77310;SDS011;66371;52.714;5.074;2023-07-16T10:03:53;9.60;;;4.75;;
77310;SDS011;66371;52.714;5.074;2023-07-16T10:06:18;8.73;;;4.97;;
77310;SDS011;66371;52.714;5.074;2023-07-16T10:08:48;11.93;;;5.90;;
77310;SDS011;66371;52.714;5.074;2023-07-16T10:11:17;10.70;;;5.03;;
77310;SDS011;66371;52.714;5.074;2023-07-16T10:13:48;9.52;;;4.35;;
77310;SDS011;66371;52.714;5.074;2023-07-16T10:16:20;10.73;;;5.55;;
77310;SDS011;66371;52.714;5.074;2023-07-16T10:18:50;13.05;;;4.90;;
77310;SDS011;66371;52.714;5.074;2023-07-16T10:21:22;11.35;;;4.22;;
77310;SDS011;66371;52.714;5.074;2023-07-16T10:23:55;8.63;;;3.80;;
77310;SDS011;66371;52.714;5.074;2023-07-16T10:26:26;6.95;;;4.50;;
77310;SDS011;66371;52.714;5.074;2023-07-16T10:28:55;8.85;;;4.28;;
77310;SDS011;66371;52.714;5.074;2023-07-16T10:31:22;9.35;;;5.28;;
77310;SDS011;66371;52.714;5.074;2023-07-16T10:33:58;8.77;;;5.00;;
77310;SDS011;66371;52.714;5.074;2023-07-16T10:36:24;9.90;;;3.38;;
77310;SDS011;66371;52.714;5.074;2023-07-16T10:38:50;8.93;;;3.95;;
77310;SDS011;66371;52.714;5.074;2023-07-16T10:41:15;17.48;;;5.07;;
77310;SDS011;66371;52.714;5.074;2023-07-16T10:43:41;11.95;;;4.55;;
77310;SDS011;66371;52.714;5.074;2023-07-16T10:46:07;7.50;;;4.05;;
77310;SDS011;66371;52.714;5.074;2023-07-16T10:48:34;8.85;;;4.72;;
77310;SDS011;66371;52.714;5.074;2023-07-16T10:50:59;11.40;;;4.53;;
77310;SDS011;66371;52.714;5.074;2023-07-16T10:53:24;10.07;;;4.87;;
77310;SDS011;66371;52.714;5.074;2023-07-16T10:55:50;15.02;;;6.90;;
77310;SDS011;66371;52.714;5.074;2023-07-16T10:58:15;11.65;;;4.65;;
77310;SDS011;66371;52.714;5.074;2023-07-16T11:00:41;11.55;;;5.15;;
77310;SDS011;66371;52.714;5.074;2023-07-16T11:03:06;10.32;;;6.03;;
77310;SDS011;66371;52.714;5.074;2023-07-16T11:05:32;11.20;;;4.78;;
77310;SDS011;66371;52.714;5.074;2023-07-16T11:07:57;12.50;;;4.20;;
77310;SDS011;66371;52.714;5.074;2023-07-16T11:10:23;11.63;;;4.40;;
77310;SDS011;66371;52.714;5.074;2023-07-16T11:12:52;8.32;;;3.80;;
77310;SDS011;66371;52.714;5.074;2023-07-16T11:15:18;7.15;;;5.00;;
77310;SDS011;66371;52.714;5.074;2023-07-16T11:17:54;8.32;;;5.47;;
77310;SDS011;66371;52.714;5.074;2023-07-16T11:20:19;6.88;;;3.80;;
77310;SDS011;66371;52.714;5.074;2023-07-16T11:22:46;11.07;;;4.82;;
77310;SDS011;66371;52.714;5.074;2023-07-16T11:25:12;10.13;;;5.07;;
77310;SDS011;66371;52.714;5.074;2023-07-16T11:27:40;13.65;;;7.05;;
77310;SDS011;66371;52.714;5.074;2023-07-16T11:30:07;12.25;;;4.88;;
77310;SDS011;66371;52.714;5.074;2023-07-16T11:32:42;9.77;;;3.88;;
77310;SDS011;66371;52.714;5.074;2023-07-16T11:35:11;14.05;;;5.80;;
77310;SDS011;66371;52.714;5.074;2023-07-16T11:37:41;13.48;;;4.38;;
77310;SDS011;66371;52.714;5.074;2023-07-16T11:40:07;8.43;;;4.05;;
77310;SDS011;66371;52.714;5.074;2023-07-16T11:42:34;9.38;;;3.83;;
77310;SDS011;66371;52.714;5.074;2023-07-16T11:45:00;10.63;;;3.90;;
77310;SDS011;66371;52.714;5.074;2023-07-16T11:47:27;9.00;;;4.72;;
77310;SDS011;66371;52.714;5.074;2023-07-16T11:49:53;11.80;;;4.15;;
77310;SDS011;66371;52.714;5.074;2023-07-16T11:52:26;7.63;;;2.78;;
77310;SDS011;66371;52.714;5.074;2023-07-16T11:54:52;7.15;;;2.90;;
77310;SDS011;66371;52.714;5.074;2023-07-16T11:57:18;8.77;;;2.83;;
77310;SDS011;66371;52.714;5.074;2023-07-16T11:59:44;12.52;;;4.28;;
77310;SDS011;66371;52.714;5.074;2023-07-16T12:02:10;6.68;;;2.78;;
77310;SDS011;66371;52.714;5.074;2023-07-16T12:04:39;10.68;;;4.30;;
77310;SDS011;66371;52.714;5.074;2023-07-16T12:07:07;8.00;;;3.22;;
77310;SDS011;66371;52.714;5.074;2023-07-16T12:09:32;6.95;;;2.97;;
77310;SDS011;66371;52.714;5.074;2023-07-16T12:11:59;11.32;;;2.72;;
77310;SDS011;66371;52.714;5.074;2023-07-16T12:14:24;9.48;;;4.38;;
77310;SDS011;66371;52.714;5.074;2023-07-16T12:16:50;12.93;;;3.60;;
77310;SDS011;66371;52.714;5.074;2023-07-16T12:19:15;5.95;;;2.30;;
77310;SDS011;66371;52.714;5.074;2023-07-16T12:21:41;11.65;;;3.85;;
77310;SDS011;66371;52.714;5.074;2023-07-16T12:24:07;9.27;;;2.58;;
77310;SDS011;66371;52.714;5.074;2023-07-16T12:26:33;7.50;;;2.53;;
77310;SDS011;66371;52.714;5.074;2023-07-16T12:28:59;7.18;;;2.83;;
77310;SDS011;66371;52.714;5.074;2023-07-16T12:31:29;12.23;;;4.43;;
77310;SDS011;66371;52.714;5.074;2023-07-16T12:33:56;13.32;;;3.15;;
77310;SDS011;66371;52.714;5.074;2023-07-16T12:36:22;6.05;;;3.15;;
77310;SDS011;66371;52.714;5.074;2023-07-16T12:38:47;8.23;;;2.50;;
77310;SDS011;66371;52.714;5.074;2023-07-16T12:41:13;7.68;;;3.83;;
77310;SDS011;66371;52.714;5.074;2023-07-16T12:43:40;9.68;;;3.45;;
77310;SDS011;66371;52.714;5.074;2023-07-16T12:46:06;6.43;;;2.65;;
77310;SDS011;66371;52.714;5.074;2023-07-16T12:48:31;4.22;;;2.20;;
77310;SDS011;66371;52.714;5.074;2023-07-16T12:50:57;7.82;;;3.58;;
77310;SDS011;66371;52.714;5.074;2023-07-16T12:53:23;8.43;;;3.55;;
77310;SDS011;66371;52.714;5.074;2023-07-16T12:55:49;6.63;;;3.65;;
77310;SDS011;66371;52.714;5.074;2023-07-16T12:58:14;4.13;;;3.08;;
77310;SDS011;66371;52.714;5.074;2023-07-16T13:00:41;10.05;;;3.40;;
77310;SDS011;66371;52.714;5.074;2023-07-16T13:03:06;7.85;;;3.13;;
77310;SDS011;66371;52.714;5.074;2023-07-16T13:05:36;7.70;;;2.53;;
77310;SDS011;66371;52.714;5.074;2023-07-16T13:08:05;8.00;;;2.67;;
77310;SDS011;66371;52.714;5.074;2023-07-16T13:10:30;9.02;;;3.78;;
77310;SDS011;66371;52.714;5.074;2023-07-16T13:12:55;22.85;;;4.50;;
77310;SDS011;66371;52.714;5.074;2023-07-16T13:15:21;9.00;;;4.18;;
77310;SDS011;66371;52.714;5.074;2023-07-16T13:17:48;7.38;;;2.17;;
77310;SDS011;66371;52.714;5.074;2023-07-16T13:20:13;8.65;;;2.33;;
77310;SDS011;66371;52.714;5.074;2023-07-16T13:22:39;9.18;;;4.68;;
77310;SDS011;66371;52.714;5.074;2023-07-16T13:25:05;9.77;;;3.47;;
77310;SDS011;66371;52.714;5.074;2023-07-16T13:27:31;5.65;;;2.35;;
77310;SDS011;66371;52.714;5.074;2023-07-16T13:29:57;9.18;;;3.95;;
77310;SDS011;66371;52.714;5.074;2023-07-16T13:32:22;7.10;;;2.58;;
77310;SDS011;66371;52.714;5.074;2023-07-16T13:34:48;8.40;;;2.65;;
77310;SDS011;66371;52.714;5.074;2023-07-16T13:37:13;9.05;;;2.58;;
77310;SDS011;66371;52.714;5.074;2023-07-16T13:39:39;9.48;;;3.28;;
77310;SDS011;66371;52.714;5.074;2023-07-16T13:42:04;6.97;;;2.67;;
77310;SDS011;66371;52.714;5.074;2023-07-16T13:44:31;6.97;;;3.35;;
77310;SDS011;66371;52.714;5.074;2023-07-16T13:46:59;7.57;;;3.72;;
77310;SDS011;66371;52.714;5.074;2023-07-16T13:49:25;6.30;;;2.35;;
77310;SDS011;66371;52.714;5.074;2023-07-16T13:51:50;5.63;;;2.83;;
77310;SDS011;66371;52.714;5.074;2023-07-16T13:54:16;15.95;;;5.05;;
77310;SDS011;66371;52.714;5.074;2023-07-16T13:56:41;7.18;;;2.80;;
77310;SDS011;66371;52.714;5.074;2023-07-16T13:59:07;9.35;;;3.80;;
77310;SDS011;66371;52.714;5.074;2023-07-16T14:01:32;7.63;;;3.22;;
77310;SDS011;66371;52.714;5.074;2023-07-16T14:04:04;10.70;;;3.58;;
77310;SDS011;66371;52.714;5.074;2023-07-16T14:06:30;7.07;;;2.63;;
77310;SDS011;66371;52.714;5.074;2023-07-16T14:08:55;6.55;;;2.47;;
77310;SDS011;66371;52.714;5.074;2023-07-16T14:11:21;5.93;;;3.40;;
77310;SDS011;66371;52.714;5.074;2023-07-16T14:13:47;6.07;;;2.45;;
77310;SDS011;66371;52.714;5.074;2023-07-16T14:16:16;6.68;;;4.30;;
77310;SDS011;66371;52.714;5.074;2023-07-16T14:18:42;6.90;;;2.55;;
77310;SDS011;66371;52.714;5.074;2023-07-16T14:21:08;7.15;;;3.55;;
77310;SDS011;66371;52.714;5.074;2023-07-16T14:23:33;7.90;;;2.95;;
77310;SDS011;66371;52.714;5.074;2023-07-16T14:25:59;5.38;;;2.90;;
77310;SDS011;66371;52.714;5.074;2023-07-16T14:28:24;7.82;;;3.15;;
77310;SDS011;66371;52.714;5.074;2023-07-16T14:30:50;8.13;;;2.90;;
77310;SDS011;66371;52.714;5.074;2023-07-16T14:33:15;7.90;;;2.63;;
77310;SDS011;66371;52.714;5.074;2023-07-16T14:35:40;7.60;;;3.47;;
77310;SDS011;66371;52.714;5.074;2023-07-16T14:38:06;5.40;;;2.97;;
77310;SDS011;66371;52.714;5.074;2023-07-16T14:40:32;10.18;;;4.30;;